Time;durP1;ratioP1;P1;durP2;ratioP2;P2;SDS_P1;SDS_P2;PMS_P1;PMS_P2;Temp;Humidity;BMP_temperature;BMP_pressure;BME280_temperature;BME280_humidity;BME280_pressure;Samples;Min_cycle;Max_cycle;Signal;HPM_P1;HPM_P2
2024/02/03 08:19:50;;;;;;;5.65;5.03;;;10.00;99.90;;;;;;5087010;27;20577;-69
2024/02/03 08:22:16;;;;;;;10.95;7.00;;;10.10;99.90;;;;;;5065890;28;20221;-68
2024/02/03 08:24:43;;;;;;;9.00;4.55;;;10.10;99.90;;;;;;5068628;28;20582;-68
2024/02/03 08:27:10;;;;;;;4.57;4.20;;;10.10;99.90;;;;;;5068603;28;20198;-68
2024/02/03 08:29:37;;;;;;;6.30;4.60;;;10.20;99.90;;;;;;5063120;28;20194;-68
2024/02/03 08:32:04;;;;;;;10.57;5.53;;;10.20;99.90;;;;;;5072672;28;20224;-67
2024/02/03 08:34:31;;;;;;;6.82;3.72;;;10.20;99.90;;;;;;5081069;28;20209;-68
2024/02/03 08:36:59;;;;;;;5.95;5.45;;;10.40;99.90;;;;;;5072147;28;20205;-68
2024/02/03 08:39:26;;;;;;;9.82;4.50;;;10.20;99.90;;;;;;5069836;28;20222;-68
2024/02/03 08:41:53;;;;;;;10.07;5.40;;;10.20;99.90;;;;;;5063597;28;20229;-69
2024/02/03 08:44:19;;;;;;;6.15;5.03;;;10.20;99.90;;;;;;5061327;28;20203;-69
2024/02/03 08:46:46;;;;;;;6.88;4.43;;;10.20;99.90;;;;;;5069870;28;20560;-68
2024/02/03 08:49:13;;;;;;;5.55;4.90;;;10.30;99.90;;;;;;5067899;28;20207;-69
2024/02/03 08:51:39;;;;;;;4.22;3.92;;;10.30;99.90;;;;;;5079046;28;20235;-69
2024/02/03 08:54:07;;;;;;;6.88;4.80;;;10.30;99.90;;;;;;5082539;28;20209;-68
2024/02/03 08:56:34;;;;;;;4.22;3.90;;;10.30;99.90;;;;;;5058790;28;20222;-69
2024/02/03 08:59:01;;;;;;;3.35;3.05;;;10.30;99.90;;;;;;5069722;28;20250;-69
2024/02/03 09:01:28;;;;;;;11.70;4.35;;;10.30;99.90;;;;;;5064083;28;20239;-68
2024/02/03 09:03:55;;;;;;;5.13;3.83;;;10.30;99.90;;;;;;5070323;28;20226;-68
2024/02/03 09:06:21;;;;;;;4.20;4.00;;;10.30;99.90;;;;;;5058172;28;20214;-68
2024/02/03 09:08:48;;;;;;;5.13;3.95;;;10.20;99.90;;;;;;5069580;28;20203;-68
2024/02/03 09:11:16;;;;;;;7.60;4.55;;;10.30;99.90;;;;;;5074333;28;20282;-69
2024/02/03 09:13:43;;;;;;;5.80;4.25;;;10.30;99.90;;;;;;5067511;28;20217;-68
2024/02/03 09:16:10;;;;;;;4.47;3.95;;;10.30;99.90;;;;;;5073818;28;20214;-68
2024/02/03 09:18:37;;;;;;;4.95;4.50;;;10.30;99.90;;;;;;5064857;28;20714;-69
2024/02/03 09:21:04;;;;;;;4.45;4.05;;;10.30;99.90;;;;;;5069506;28;20234;-69
2024/02/03 09:23:30;;;;;;;4.40;4.10;;;10.20;99.90;;;;;;5066636;28;20229;-70
2024/02/03 09:25:57;;;;;;;4.85;3.30;;;10.20;99.90;;;;;;5067092;28;20206;-68
2024/02/03 09:28:25;;;;;;;5.03;4.63;;;10.20;99.90;;;;;;5069100;28;20194;-69
2024/02/03 09:30:52;;;;;;;2.95;2.75;;;10.20;99.90;;;;;;5054800;28;20222;-69
2024/02/03 09:33:18;;;;;;;5.95;3.60;;;10.20;99.90;;;;;;5054412;28;20215;-69
2024/02/03 09:35:46;;;;;;;3.85;3.58;;;10.10;99.90;;;;;;5057637;28;20662;-69
2024/02/03 09:38:12;;;;;;;7.80;4.30;;;10.10;99.90;;;;;;5064035;28;20226;-68
2024/02/03 09:40:39;;;;;;;4.05;2.90;;;10.10;99.90;;;;;;5052603;28;20230;-70
2024/02/03 09:43:07;;;;;;;13.10;5.15;;;10.10;99.90;;;;;;5046447;28;20199;-70
2024/02/03 09:45:35;;;;;;;4.10;3.22;;;10.10;99.90;;;;;;5058453;28;20250;-69
2024/02/03 09:48:02;;;;;;;14.00;7.68;;;10.10;99.90;;;;;;5050221;28;20208;-69
2024/02/03 09:50:29;;;;;;;4.28;3.85;;;10.10;99.90;;;;;;5052382;28;20584;-69
2024/02/03 09:52:57;;;;;;;3.80;3.50;;;10.10;99.90;;;;;;5056711;28;20280;-70
2024/02/03 09:55:24;;;;;;;5.78;5.25;;;10.10;99.90;;;;;;5050769;28;20292;-68
2024/02/03 09:57:51;;;;;;;5.57;5.05;;;10.10;99.90;;;;;;5043026;28;20219;-70
2024/02/03 10:00:20;;;;;;;3.50;3.20;;;10.10;99.90;;;;;;5050742;28;20221;-69
2024/02/03 10:02:48;;;;;;;3.72;2.97;;;10.10;99.90;;;;;;5052157;28;20211;-68
2024/02/03 10:05:24;;;;;;;6.63;5.35;;;10.00;99.90;;;;;;5045545;28;20676;-68
2024/02/03 10:07:59;;;;;;;5.93;5.57;;;10.00;99.90;;;;;;5056712;28;20206;-69
2024/02/03 10:10:26;;;;;;;4.97;4.60;;;10.00;99.90;;;;;;5066763;28;20205;-68
2024/02/03 10:13:07;;;;;;;6.13;5.18;;;10.00;99.90;;;;;;5061953;28;20220;-68
2024/02/03 10:15:34;;;;;;;4.75;4.43;;;10.10;99.90;;;;;;5053072;28;20289;-69
2024/02/03 10:18:02;;;;;;;4.63;3.97;;;10.00;99.90;;;;;;5059163;28;20237;-68
2024/02/03 10:20:29;;;;;;;6.28;5.68;;;10.10;99.90;;;;;;5045009;28;20290;-69
2024/02/03 10:22:56;;;;;;;5.63;4.70;;;10.10;99.90;;;;;;5044584;28;20230;-68
2024/02/03 10:25:27;;;;;;;3.88;3.60;;;10.10;99.90;;;;;;5049621;28;20210;-69
2024/02/03 10:28:00;;;;;;;6.22;4.95;;;10.10;99.90;;;;;;5051806;28;20213;-69
2024/02/03 10:30:29;;;;;;;8.20;5.38;;;10.10;99.90;;;;;;5040178;28;20251;-70
2024/02/03 10:32:58;;;;;;;12.57;6.80;;;10.10;99.90;;;;;;5054134;28;20218;-69
2024/02/03 10:35:28;;;;;;;10.43;5.50;;;10.10;99.90;;;;;;5041891;28;20310;-70
2024/02/03 10:37:54;;;;;;;10.13;6.72;;;10.10;99.90;;;;;;5049294;28;20206;-69
2024/02/03 10:40:21;;;;;;;7.80;5.82;;;10.20;99.90;;;;;;5062605;28;20590;-71
2024/02/03 10:42:52;;;;;;;7.55;5.82;;;10.20;99.90;;;;;;5049492;28;20207;-69
2024/02/03 10:45:24;;;;;;;6.90;5.55;;;10.20;99.90;;;;;;5053604;28;20202;-70
2024/02/03 10:47:51;;;;;;;6.97;4.78;;;10.20;99.90;;;;;;5049549;28;20216;-69
2024/02/03 10:50:19;;;;;;;7.15;5.10;;;10.20;99.90;;;;;;5051713;28;20293;-70
2024/02/03 10:52:49;;;;;;;7.43;5.03;;;10.20;99.90;;;;;;5050184;28;20557;-68
2024/02/03 10:55:20;;;;;;;10.52;5.35;;;10.20;99.90;;;;;;5051724;28;20218;-69
2024/02/03 10:57:49;;;;;;;6.55;5.32;;;10.20;99.90;;;;;;5041684;28;20295;-68
2024/02/03 11:00:18;;;;;;;7.30;4.55;;;10.20;99.90;;;;;;5051879;28;20232;-69
2024/02/03 11:02:51;;;;;;;6.47;5.93;;;10.20;99.90;;;;;;5058796;28;20289;-70
2024/02/03 11:05:18;;;;;;;6.40;5.35;;;10.10;99.90;;;;;;5049810;28;20202;-70
2024/02/03 11:07:48;;;;;;;7.78;5.45;;;10.20;99.90;;;;;;5036981;28;20209;-70
2024/02/03 11:10:15;;;;;;;4.28;3.95;;;10.20;99.90;;;;;;5047866;28;20210;-69
2024/02/03 11:12:42;;;;;;;7.38;5.07;;;10.20;99.90;;;;;;5041668;28;20735;-70
2024/02/03 11:15:14;;;;;;;7.63;5.73;;;10.10;99.90;;;;;;5041231;28;20659;-69
2024/02/03 11:17:42;;;;;;;8.48;5.13;;;10.10;99.90;;;;;;5042862;28;22069;-69
2024/02/03 11:20:18;;;;;;;8.60;6.00;;;10.10;99.90;;;;;;5045977;28;21013;-69
2024/02/03 11:22:52;;;;;;;8.32;5.82;;;10.10;99.90;;;;;;5041230;28;20702;-68
2024/02/03 11:25:19;;;;;;;5.60;5.07;;;10.20;99.90;;;;;;5051722;28;20219;-69
2024/02/03 11:27:46;;;;;;;5.75;4.60;;;10.20;99.90;;;;;;5056272;28;20206;-70
2024/02/03 11:30:16;;;;;;;5.15;3.90;;;10.20;99.90;;;;;;5052145;28;20199;-70
2024/02/03 11:32:42;;;;;;;7.82;5.65;;;10.20;99.90;;;;;;5056316;28;20579;-70
2024/02/03 11:35:09;;;;;;;5.57;4.18;;;10.20;99.90;;;;;;5056368;28;20220;-69
2024/02/03 11:37:36;;;;;;;8.60;5.32;;;10.30;99.90;;;;;;5046007;28;20237;-71
2024/02/03 11:40:12;;;;;;;6.82;4.43;;;10.20;99.90;;;;;;5043673;28;20225;-71
2024/02/03 11:42:39;;;;;;;5.15;4.65;;;10.20;99.90;;;;;;5051019;28;20207;-71
2024/02/03 11:45:13;;;;;;;4.25;3.90;;;10.30;99.90;;;;;;5052494;28;20202;-71
2024/02/03 11:47:39;;;;;;;9.18;4.55;;;10.30;99.90;;;;;;5051006;28;20269;-72
2024/02/03 11:50:07;;;;;;;4.70;3.95;;;10.30;99.90;;;;;;5046105;28;20207;-70
2024/02/03 11:52:34;;;;;;;6.75;5.00;;;10.20;99.90;;;;;;5053127;28;20615;-71
2024/02/03 11:55:01;;;;;;;5.50;3.95;;;10.20;99.90;;;;;;5050207;28;20207;-70
2024/02/03 11:57:29;;;;;;;8.75;4.82;;;10.30;99.90;;;;;;5051780;28;20750;-71
2024/02/03 11:59:59;;;;;;;10.35;5.80;;;10.30;99.90;;;;;;5046179;28;20218;-69
2024/02/03 12:02:26;;;;;;;6.22;4.47;;;10.40;99.90;;;;;;5049945;28;20707;-69
2024/02/03 12:04:53;;;;;;;6.57;4.93;;;10.40;99.90;;;;;;5044404;28;20252;-69
2024/02/03 12:07:20;;;;;;;4.80;4.30;;;10.40;99.90;;;;;;5045974;28;20211;-68
2024/02/03 12:09:48;;;;;;;5.05;4.32;;;10.40;99.90;;;;;;5046385;28;20580;-68
2024/02/03 12:12:14;;;;;;;6.13;3.97;;;10.40;99.90;;;;;;5052293;28;20223;-69
2024/02/03 12:14:43;;;;;;;4.75;3.95;;;10.30;99.90;;;;;;5061930;28;20231;-72
2024/02/03 12:17:10;;;;;;;6.90;4.68;;;10.30;99.90;;;;;;5059161;28;20203;-69
2024/02/03 12:19:37;;;;;;;6.95;4.40;;;10.40;99.90;;;;;;5040448;28;20615;-71
2024/02/03 12:22:04;;;;;;;3.65;3.38;;;10.30;99.90;;;;;;5046449;28;20241;-69
2024/02/03 12:24:32;;;;;;;7.55;4.30;;;10.30;99.90;;;;;;5047764;28;20199;-69
2024/02/03 12:27:00;;;;;;;3.97;2.60;;;10.30;99.90;;;;;;5039124;28;20576;-69
2024/02/03 12:29:26;;;;;;;4.30;3.78;;;10.30;99.90;;;;;;5042935;28;20205;-69
2024/02/03 12:31:54;;;;;;;4.50;4.10;;;10.30;99.90;;;;;;5037998;28;20259;-69
2024/02/03 12:34:21;;;;;;;2.65;2.45;;;10.30;99.90;;;;;;5045809;28;20203;-72
2024/02/03 12:36:48;;;;;;;3.22;2.95;;;10.30;99.90;;;;;;5044298;28;20207;-69
2024/02/03 12:39:15;;;;;;;5.53;3.50;;;10.20;99.90;;;;;;5037001;28;20230;-70
2024/02/03 12:41:41;;;;;;;3.85;3.33;;;10.20;99.90;;;;;;5043376;28;20230;-71
2024/02/03 12:44:08;;;;;;;4.32;3.95;;;10.20;99.90;;;;;;5042032;28;20257;-69
2024/02/03 12:46:37;;;;;;;4.50;3.27;;;10.20;99.90;;;;;;5043891;28;20210;-70
2024/02/03 12:49:05;;;;;;;2.90;2.70;;;10.20;99.90;;;;;;5055091;28;20908;-71
2024/02/03 12:51:32;;;;;;;3.55;2.97;;;10.30;99.90;;;;;;5056122;28;20230;-70
2024/02/03 12:53:59;;;;;;;4.18;3.05;;;10.30;99.90;;;;;;5044324;28;20531;-70
2024/02/03 12:56:26;;;;;;;5.10;3.10;;;10.30;99.90;;;;;;5036209;28;20204;-70
2024/02/03 12:58:52;;;;;;;2.30;2.20;;;10.30;99.90;;;;;;5043200;28;20206;-69
2024/02/03 13:01:19;;;;;;;2.45;2.35;;;10.30;99.90;;;;;;5052798;28;20302;-69
2024/02/03 13:03:46;;;;;;;2.72;2.60;;;10.30;99.90;;;;;;5045280;28;20209;-69
2024/02/03 13:06:14;;;;;;;3.30;3.10;;;10.40;99.90;;;;;;5055033;28;20212;-69
2024/02/03 13:08:41;;;;;;;5.00;3.17;;;10.40;99.90;;;;;;5055487;28;20223;-69
2024/02/03 13:11:08;;;;;;;2.88;2.58;;;10.30;99.90;;;;;;5053537;28;20218;-70
2024/02/03 13:13:34;;;;;;;2.75;2.33;;;10.30;99.90;;;;;;5055348;28;20202;-70
2024/02/03 13:16:01;;;;;;;2.67;2.50;;;10.30;99.90;;;;;;5058574;28;20207;-69
2024/02/03 13:18:28;;;;;;;2.42;2.33;;;10.30;99.90;;;;;;5053936;28;20217;-70
2024/02/03 13:20:55;;;;;;;4.28;3.53;;;10.30;99.90;;;;;;5063337;28;20693;-70
2024/02/03 13:23:23;;;;;;;2.78;2.58;;;10.40;99.90;;;;;;5056832;28;20233;-72
2024/02/03 13:25:49;;;;;;;4.07;3.72;;;10.40;99.90;;;;;;5051346;28;20204;-69
2024/02/03 13:28:16;;;;;;;6.88;3.00;;;10.40;99.90;;;;;;5054310;28;20572;-69
2024/02/03 13:30:43;;;;;;;6.30;2.95;;;10.40;99.90;;;;;;5048398;28;20249;-69
2024/02/03 13:33:10;;;;;;;2.60;2.40;;;10.30;99.90;;;;;;5051696;28;20211;-69
2024/02/03 13:35:37;;;;;;;3.97;3.65;;;10.30;99.90;;;;;;5053225;28;20539;-70
2024/02/03 13:38:04;;;;;;;6.80;5.05;;;10.40;99.90;;;;;;5065255;28;20207;-70
2024/02/03 13:40:32;;;;;;;5.55;5.07;;;10.40;99.90;;;;;;5055173;28;20276;-69
2024/02/03 13:43:00;;;;;;;3.35;3.08;;;10.40;99.90;;;;;;5053313;28;20216;-69
2024/02/03 13:45:29;;;;;;;4.90;4.50;;;10.40;99.90;;;;;;5052284;28;20261;-69
2024/02/03 13:47:56;;;;;;;5.93;4.63;;;10.40;99.90;;;;;;5052672;28;20219;-69
2024/02/03 13:50:22;;;;;;;4.43;3.70;;;10.50;99.90;;;;;;5046861;28;20659;-71
2024/02/03 13:52:49;;;;;;;6.85;5.25;;;10.50;99.90;;;;;;5058212;28;20207;-71
2024/02/03 13:55:16;;;;;;;4.82;3.75;;;10.50;99.90;;;;;;5061891;28;20204;-67
2024/02/03 13:57:44;;;;;;;4.57;4.18;;;10.50;99.90;;;;;;5049822;28;20210;-68
2024/02/03 14:00:12;;;;;;;3.83;3.72;;;10.50;99.90;;;;;;5052940;28;20219;-67
2024/02/03 14:02:39;;;;;;;4.25;3.85;;;10.40;99.90;;;;;;5051699;28;20212;-68
2024/02/03 14:05:06;;;;;;;3.03;2.83;;;10.50;99.90;;;;;;5046476;28;20203;-70
2024/02/03 14:07:33;;;;;;;2.53;2.40;;;10.40;99.90;;;;;;5049444;28;20224;-70
2024/02/03 14:10:00;;;;;;;3.30;3.15;;;10.40;99.90;;;;;;5052389;28;20542;-68
2024/02/03 14:12:27;;;;;;;3.03;2.92;;;10.40;99.90;;;;;;5045106;28;20739;-71
2024/02/03 14:14:55;;;;;;;3.33;3.03;;;10.40;99.90;;;;;;5054401;28;20206;-69
2024/02/03 14:17:22;;;;;;;5.20;3.53;;;10.40;99.90;;;;;;5048070;28;20205;-70
2024/02/03 14:19:48;;;;;;;3.67;3.22;;;10.40;99.90;;;;;;5052199;28;20223;-69
2024/02/03 14:22:15;;;;;;;2.85;2.55;;;10.40;99.90;;;;;;5042006;28;20228;-71
2024/02/03 14:24:42;;;;;;;3.38;3.05;;;10.40;99.90;;;;;;5063063;28;20218;-70
2024/02/03 14:27:09;;;;;;;3.20;3.00;;;10.40;99.90;;;;;;5043890;28;20213;-70
2024/02/03 14:29:36;;;;;;;2.35;2.15;;;10.50;99.90;;;;;;5052796;28;20573;-69
2024/02/03 14:32:05;;;;;;;2.60;2.40;;;10.50;99.90;;;;;;5054644;28;20241;-69
2024/02/03 14:34:31;;;;;;;3.05;2.75;;;10.50;99.90;;;;;;5050017;28;20749;-70
2024/02/03 14:36:58;;;;;;;8.25;4.38;;;10.50;99.90;;;;;;5045019;28;20241;-69
2024/02/03 14:39:25;;;;;;;7.57;4.10;;;10.50;99.90;;;;;;5052549;28;20228;-69
2024/02/03 14:41:53;;;;;;;3.65;3.03;;;10.50;99.90;;;;;;5051270;28;20226;-70
2024/02/03 14:44:20;;;;;;;2.20;2.10;;;10.50;99.90;;;;;;5052254;28;20211;-71
2024/02/03 14:46:46;;;;;;;3.42;3.13;;;10.50;99.90;;;;;;5047094;28;20377;-70
2024/02/03 14:49:16;;;;;;;4.80;2.58;;;10.50;99.90;;;;;;5052219;28;20216;-70
2024/02/03 14:51:42;;;;;;;1.85;1.70;;;10.40;99.90;;;;;;5055141;28;20792;-70
2024/02/03 14:54:10;;;;;;;2.45;2.33;;;10.40;99.90;;;;;;5049949;28;20207;-70
2024/02/03 14:56:36;;;;;;;8.20;2.83;;;10.40;99.90;;;;;;5040708;28;20661;-70
2024/02/03 14:59:03;;;;;;;5.20;2.30;;;10.40;99.90;;;;;;5048058;28;20237;-70
2024/02/03 15:01:30;;;;;;;2.17;2.08;;;10.40;99.90;;;;;;5049083;28;20235;-71
2024/02/03 15:03:56;;;;;;;5.35;1.98;;;10.40;99.90;;;;;;5034837;28;20213;-71
2024/02/03 15:06:25;;;;;;;8.07;2.47;;;10.40;99.90;;;;;;5049573;28;20223;-69
2024/02/03 15:08:53;;;;;;;3.72;1.98;;;10.40;99.90;;;;;;5055306;28;20210;-70
2024/02/03 15:11:19;;;;;;;5.15;1.92;;;10.40;99.90;;;;;;5043003;28;20233;-71
2024/02/03 15:13:46;;;;;;;1.95;1.85;;;10.30;99.90;;;;;;5043930;28;20641;-70
2024/02/03 15:16:13;;;;;;;14.50;11.70;;;10.20;99.90;;;;;;5039187;28;20211;-69
2024/02/03 15:18:39;;;;;;;4.75;2.40;;;10.10;99.90;;;;;;5050892;28;20218;-70
2024/02/03 15:21:06;;;;;;;1.90;1.80;;;10.10;99.90;;;;;;5049755;28;20680;-70
2024/02/03 15:23:34;;;;;;;3.00;2.80;;;10.10;99.90;;;;;;5045378;28;20206;-70
2024/02/03 15:26:01;;;;;;;2.47;2.28;;;10.00;99.90;;;;;;5046871;28;20207;-70
2024/02/03 15:28:28;;;;;;;5.10;2.90;;;10.00;99.90;;;;;;5047163;28;20239;-70
2024/02/03 15:30:54;;;;;;;3.50;2.33;;;10.00;99.90;;;;;;5040521;28;20233;-70
2024/02/03 15:33:21;;;;;;;3.20;2.38;;;10.00;99.90;;;;;;5047306;28;20198;-70
2024/02/03 15:35:48;;;;;;;4.15;2.78;;;9.90;99.90;;;;;;5049926;28;20206;-70
2024/02/03 15:38:15;;;;;;;2.88;2.83;;;9.90;99.90;;;;;;5051504;28;20257;-71
2024/02/03 15:40:43;;;;;;;5.47;3.95;;;9.90;99.90;;;;;;5041858;28;20236;-70
2024/02/03 15:43:09;;;;;;;5.43;3.17;;;9.90;99.90;;;;;;5041883;28;20205;-70
2024/02/03 15:45:37;;;;;;;4.57;2.13;;;9.80;99.90;;;;;;5040748;28;20206;-69
2024/02/03 15:48:04;;;;;;;2.38;1.38;;;9.80;99.90;;;;;;5035790;28;20665;-72
2024/02/03 15:50:32;;;;;;;5.25;1.60;;;9.70;99.90;;;;;;5038087;28;20204;-69
2024/02/03 15:53:02;;;;;;;9.05;1.70;;;9.60;99.90;;;;;;5049480;28;20236;-69
2024/02/03 15:55:29;;;;;;;7.47;2.20;;;9.60;99.90;;;;;;5052563;28;20206;-68
2024/02/03 15:57:57;;;;;;;1.38;1.27;;;9.50;99.90;;;;;;5045155;28;20208;-73
2024/02/03 16:00:25;;;;;;;1.83;1.42;;;9.50;99.90;;;;;;5045579;28;20226;-69
2024/02/03 16:02:52;;;;;;;2.05;1.75;;;9.40;99.90;;;;;;5048435;28;20206;-70
2024/02/03 16:05:18;;;;;;;4.22;2.20;;;9.30;99.90;;;;;;5046404;28;20836;-69
2024/02/03 16:07:45;;;;;;;3.33;1.20;;;9.30;99.90;;;;;;5037696;28;20203;-69
2024/02/03 16:10:13;;;;;;;2.15;1.05;;;9.20;99.90;;;;;;5039312;28;20580;-70
2024/02/03 16:12:40;;;;;;;3.95;1.10;;;9.20;99.90;;;;;;5050695;28;20625;-69
2024/02/03 16:15:10;;;;;;;5.03;2.08;;;9.10;99.90;;;;;;5050291;28;20202;-69
2024/02/03 16:17:36;;;;;;;6.07;1.90;;;9.10;99.90;;;;;;5050197;28;20682;-69
2024/02/03 16:20:04;;;;;;;1.52;1.50;;;9.00;99.90;;;;;;5055267;28;20213;-69
2024/02/03 16:22:30;;;;;;;1.85;1.52;;;9.00;99.90;;;;;;5048107;28;20222;-68
2024/02/03 16:24:57;;;;;;;1.60;1.50;;;9.00;99.90;;;;;;5045130;28;20217;-70
2024/02/03 16:27:24;;;;;;;8.43;1.77;;;9.00;99.90;;;;;;5049073;28;20208;-69
2024/02/03 16:29:51;;;;;;;8.52;5.00;;;9.00;99.90;;;;;;5045361;28;20206;-70
2024/02/03 16:32:19;;;;;;;6.25;1.85;;;9.00;99.90;;;;;;5050997;28;20610;-69
2024/02/03 16:34:46;;;;;;;6.00;2.83;;;9.00;99.90;;;;;;5049551;28;20206;-69
2024/02/03 16:37:13;;;;;;;1.17;1.17;;;8.90;99.90;;;;;;5051596;28;20525;-69
2024/02/03 16:39:40;;;;;;;4.38;2.20;;;8.90;99.90;;;;;;5054922;28;20682;-69
2024/02/03 16:42:07;;;;;;;8.07;3.33;;;9.00;99.90;;;;;;5051881;28;20233;-70
2024/02/03 16:44:33;;;;;;;3.08;2.03;;;8.90;99.90;;;;;;5054371;28;20675;-70
2024/02/03 16:47:00;;;;;;;2.95;2.40;;;8.90;99.90;;;;;;5056277;28;20213;-69
2024/02/03 16:49:28;;;;;;;11.15;2.83;;;9.00;99.90;;;;;;5051877;28;20209;-68
2024/02/03 16:51:56;;;;;;;7.57;2.00;;;8.90;99.90;;;;;;5054093;28;20569;-69
2024/02/03 16:54:22;;;;;;;2.58;2.15;;;8.90;99.90;;;;;;5055520;28;20267;-72
2024/02/03 16:56:49;;;;;;;3.88;2.10;;;8.90;99.90;;;;;;5048913;28;20202;-69
2024/02/03 16:59:16;;;;;;;8.38;2.78;;;8.90;99.90;;;;;;5050645;28;20229;-70
2024/02/03 17:01:45;;;;;;;10.32;3.58;;;9.00;99.90;;;;;;5056417;28;20237;-69
2024/02/03 17:04:13;;;;;;;5.22;2.72;;;8.90;99.90;;;;;;5060507;28;20236;-68
2024/02/03 17:06:41;;;;;;;4.80;2.67;;;8.90;99.90;;;;;;5045091;28;20214;-70
2024/02/03 17:09:09;;;;;;;6.95;2.65;;;8.90;99.90;;;;;;5050435;28;20205;-68
2024/02/03 17:11:35;;;;;;;6.15;2.90;;;8.90;99.90;;;;;;5050504;28;20221;-69
2024/02/03 17:14:02;;;;;;;14.77;4.35;;;8.90;99.90;;;;;;5056946;28;20613;-71
2024/02/03 17:16:29;;;;;;;3.72;2.60;;;8.90;99.90;;;;;;5058256;28;20225;-68
2024/02/03 17:18:55;;;;;;;7.90;2.85;;;8.90;99.90;;;;;;5040703;28;20225;-69
2024/02/03 17:21:22;;;;;;;2.28;2.08;;;8.90;99.90;;;;;;5048058;28;20244;-70
2024/02/03 17:23:53;;;;;;;3.33;3.00;;;8.90;99.90;;;;;;5052706;28;20209;-69
2024/02/03 17:26:20;;;;;;;6.05;3.10;;;8.90;99.90;;;;;;5054606;28;20206;-69
2024/02/03 17:28:46;;;;;;;2.97;2.38;;;8.90;99.90;;;;;;5051074;28;20631;-69
2024/02/03 17:31:13;;;;;;;2.33;2.17;;;8.90;99.90;;;;;;5052812;28;20230;-69
2024/02/03 17:33:40;;;;;;;3.20;2.63;;;8.90;99.90;;;;;;5056096;28;20210;-69
2024/02/03 17:36:06;;;;;;;4.00;2.55;;;8.90;99.90;;;;;;5050191;28;20212;-70
2024/02/03 17:38:33;;;;;;;5.85;3.08;;;8.90;99.90;;;;;;5058665;28;20201;-70
2024/02/03 17:41:01;;;;;;;8.27;2.28;;;8.90;99.90;;;;;;5056374;28;20233;-70
2024/02/03 17:43:28;;;;;;;4.97;1.95;;;8.90;99.90;;;;;;5050977;28;20229;-70
2024/02/03 17:45:55;;;;;;;11.32;3.67;;;8.90;99.90;;;;;;5059225;28;20216;-70
2024/02/03 17:48:22;;;;;;;4.00;2.25;;;8.90;99.90;;;;;;5055976;28;20210;-70
2024/02/03 17:50:49;;;;;;;5.10;2.13;;;8.90;99.90;;;;;;5046550;28;20238;-69
2024/02/03 17:53:16;;;;;;;5.38;2.88;;;8.90;99.90;;;;;;5045962;28;20214;-70
2024/02/03 17:55:43;;;;;;;5.65;2.53;;;8.90;99.90;;;;;;5051355;28;20213;-70
2024/02/03 17:58:15;;;;;;;4.07;3.22;;;8.90;99.90;;;;;;5051709;28;20252;-72
2024/02/03 18:00:42;;;;;;;5.38;1.95;;;8.90;99.90;;;;;;5059295;28;20653;-70
2024/02/03 18:03:08;;;;;;;6.00;2.35;;;8.90;99.90;;;;;;5053057;28;20221;-70
2024/02/03 18:05:35;;;;;;;2.95;1.80;;;8.90;99.90;;;;;;5049568;28;20214;-70
2024/02/03 18:08:02;;;;;;;2.53;1.88;;;8.80;99.90;;;;;;5041075;28;20201;-70
2024/02/03 18:10:31;;;;;;;3.47;2.28;;;8.80;99.90;;;;;;5049651;28;20209;-70
2024/02/03 18:12:58;;;;;;;8.70;2.15;;;8.70;99.90;;;;;;5057397;28;20205;-70
2024/02/03 18:15:26;;;;;;;3.47;2.75;;;8.70;99.90;;;;;;5047086;28;20220;-70
2024/02/03 18:17:53;;;;;;;1.58;1.58;;;8.70;99.90;;;;;;5041880;28;20221;-70
2024/02/03 18:20:19;;;;;;;5.82;1.17;;;8.70;99.90;;;;;;5046290;28;20213;-70
2024/02/03 18:22:46;;;;;;;4.78;1.52;;;8.70;99.90;;;;;;5051898;28;20230;-71
2024/02/03 18:25:13;;;;;;;2.70;1.73;;;8.70;99.90;;;;;;5049605;28;20206;-70
2024/02/03 18:27:40;;;;;;;1.60;1.50;;;8.70;99.90;;;;;;5045855;28;20210;-70
2024/02/03 18:30:07;;;;;;;5.75;2.45;;;8.70;99.90;;;;;;5053967;28;20205;-71
2024/02/03 18:32:36;;;;;;;6.70;2.33;;;8.70;99.90;;;;;;5054359;28;20213;-71
2024/02/03 18:35:04;;;;;;;5.60;2.97;;;8.70;99.90;;;;;;5049656;28;20625;-71
2024/02/03 18:37:32;;;;;;;13.07;3.30;;;8.70;99.90;;;;;;5049235;28;20209;-71
2024/02/03 18:39:59;;;;;;;4.28;2.67;;;8.60;99.90;;;;;;5050379;28;20197;-70
2024/02/03 18:42:26;;;;;;;7.00;2.72;;;8.60;99.90;;;;;;5053072;28;20229;-71
2024/02/03 18:44:52;;;;;;;2.58;1.60;;;8.60;99.90;;;;;;5047394;28;20229;-71
2024/02/03 18:47:19;;;;;;;8.65;1.55;;;8.60;99.90;;;;;;5052645;28;20213;-71
2024/02/03 18:49:47;;;;;;;5.53;1.65;;;8.60;99.90;;;;;;5048421;28;20556;-70
2024/02/03 18:52:14;;;;;;;5.70;1.95;;;8.70;99.90;;;;;;5052427;28;20218;-71
2024/02/03 18:54:42;;;;;;;8.40;2.22;;;8.60;99.90;;;;;;5052756;28;20585;-70
2024/02/03 18:57:09;;;;;;;1.45;1.45;;;8.60;99.90;;;;;;5050842;28;20210;-71
2024/02/03 18:59:36;;;;;;;5.70;1.38;;;8.50;99.90;;;;;;5045642;28;20669;-70
2024/02/03 19:02:04;;;;;;;3.05;2.55;;;8.50;99.90;;;;;;5052626;28;20764;-70
2024/02/03 19:04:31;;;;;;;7.30;1.73;;;8.50;99.90;;;;;;5048281;28;20198;-70
2024/02/03 19:06:59;;;;;;;1.60;1.50;;;8.50;99.90;;;;;;5040108;28;20206;-70
2024/02/03 19:09:27;;;;;;;2.38;1.58;;;8.50;99.90;;;;;;5046699;28;20756;-70
2024/02/03 19:11:54;;;;;;;6.22;1.90;;;8.50;99.90;;;;;;5049652;28;20224;-70
2024/02/03 19:14:21;;;;;;;3.10;1.15;;;8.50;99.90;;;;;;5045545;28;20232;-70
2024/02/03 19:16:47;;;;;;;6.22;2.85;;;8.50;99.90;;;;;;5029849;28;20214;-70
2024/02/03 19:19:14;;;;;;;2.85;1.40;;;8.50;99.90;;;;;;5049067;28;20214;-70
2024/02/03 19:21:41;;;;;;;1.60;1.58;;;8.50;99.90;;;;;;5043732;28;20671;-70
2024/02/03 19:24:09;;;;;;;4.55;2.17;;;8.50;99.90;;;;;;5053513;28;20213;-70
2024/02/03 19:26:37;;;;;;;1.63;1.10;;;8.40;99.90;;;;;;5049237;28;20202;-69
2024/02/03 19:29:04;;;;;;;4.45;2.03;;;8.40;99.90;;;;;;5049607;28;20233;-70
2024/02/03 19:31:32;;;;;;;1.42;1.00;;;8.40;99.90;;;;;;5050038;28;20275;-70
2024/02/03 19:33:59;;;;;;;3.83;2.22;;;8.40;99.90;;;;;;5051878;28;20610;-70
2024/02/03 19:36:26;;;;;;;1.10;0.90;;;8.40;99.90;;;;;;5038623;28;20217;-70
2024/02/03 19:38:52;;;;;;;1.95;0.80;;;8.40;99.90;;;;;;5045412;28;20675;-70
2024/02/03 19:41:20;;;;;;;1.58;1.13;;;8.40;99.90;;;;;;5050533;28;20226;-70
2024/02/03 19:43:47;;;;;;;1.20;1.20;;;8.30;99.90;;;;;;5058480;28;20206;-70
2024/02/03 19:46:14;;;;;;;8.35;1.77;;;8.40;99.90;;;;;;5047542;28;20210;-70
2024/02/03 19:48:40;;;;;;;2.20;1.85;;;8.30;99.90;;;;;;5042313;28;20204;-70
2024/02/03 19:51:07;;;;;;;15.45;2.08;;;8.30;99.90;;;;;;5041716;28;20575;-70
2024/02/03 19:53:34;;;;;;;1.40;1.30;;;8.30;99.90;;;;;;5046917;28;20804;-70
2024/02/03 19:56:00;;;;;;;2.97;1.60;;;8.30;99.90;;;;;;5043309;28;20579;-69
2024/02/03 19:58:28;;;;;;;1.10;1.10;;;8.30;99.90;;;;;;5049505;28;20248;-69
2024/02/03 20:00:56;;;;;;;5.78;1.85;;;8.30;99.90;;;;;;5049360;28;20548;-69
2024/02/03 20:03:23;;;;;;;3.00;1.10;;;8.20;99.90;;;;;;5051581;28;20769;-69
2024/02/03 20:05:50;;;;;;;2.58;1.27;;;8.20;99.90;;;;;;5047150;28;20213;-70
2024/02/03 20:08:16;;;;;;;6.13;1.27;;;8.20;99.90;;;;;;5046910;28;20212;-69
2024/02/03 20:10:43;;;;;;;2.25;0.75;;;8.20;99.90;;;;;;5044482;28;20237;-69
2024/02/03 20:13:10;;;;;;;0.65;0.65;;;8.20;99.90;;;;;;5047100;28;20208;-69
2024/02/03 20:15:38;;;;;;;8.85;1.63;;;8.10;99.90;;;;;;5042752;28;20210;-70
2024/02/03 20:18:05;;;;;;;7.72;2.33;;;8.10;99.90;;;;;;5048773;28;20221;-70
2024/02/03 20:20:31;;;;;;;0.90;0.90;;;8.20;99.90;;;;;;5046877;28;20210;-69
2024/02/03 20:22:58;;;;;;;3.17;1.17;;;8.10;99.90;;;;;;5049247;28;20229;-70
2024/02/03 20:25:25;;;;;;;4.57;1.00;;;8.10;99.90;;;;;;5044978;28;20663;-70
2024/02/03 20:27:52;;;;;;;2.10;1.23;;;8.10;99.90;;;;;;5044870;28;20201;-71
2024/02/03 20:30:18;;;;;;;8.35;2.10;;;8.10;99.90;;;;;;5050800;28;20648;-70
2024/02/03 20:32:46;;;;;;;1.15;0.95;;;8.00;99.90;;;;;;5050800;28;20214;-70
2024/02/03 20:35:13;;;;;;;1.67;0.85;;;8.00;99.90;;;;;;5046749;28;20694;-71
2024/02/03 20:37:40;;;;;;;10.68;1.70;;;8.00;99.90;;;;;;5049524;28;20205;-71
2024/02/03 20:40:08;;;;;;;6.07;1.58;;;8.00;99.90;;;;;;5037327;28;20214;-72
2024/02/03 20:42:35;;;;;;;5.38;0.93;;;8.00;99.90;;;;;;5048113;28;20230;-71
2024/02/03 20:45:01;;;;;;;3.63;1.85;;;8.00;99.90;;;;;;5049926;28;20653;-70
2024/02/03 20:47:28;;;;;;;1.20;1.10;;;8.00;99.90;;;;;;5044205;28;20321;-72
2024/02/03 20:49:56;;;;;;;6.78;1.42;;;7.90;99.90;;;;;;5046927;28;20260;-71
2024/02/03 20:52:23;;;;;;;5.00;1.75;;;7.90;99.90;;;;;;5049393;28;20276;-70
2024/02/03 20:54:49;;;;;;;2.47;1.23;;;8.00;99.90;;;;;;5048826;28;20581;-70
2024/02/03 20:57:17;;;;;;;1.95;1.38;;;7.90;99.90;;;;;;5054148;28;20250;-70
2024/02/03 20:59:43;;;;;;;1.45;1.35;;;7.90;99.90;;;;;;5043699;28;20275;-70
2024/02/03 21:02:10;;;;;;;4.20;3.05;;;7.90;99.90;;;;;;5039434;28;20227;-70
2024/02/03 21:04:37;;;;;;;9.65;3.40;;;7.90;99.90;;;;;;5050254;28;20590;-70
2024/02/03 21:07:07;;;;;;;7.68;2.90;;;7.90;99.90;;;;;;5050687;28;20201;-70
2024/02/03 21:09:34;;;;;;;5.35;1.60;;;7.90;99.90;;;;;;5047660;28;20300;-70